Jenera, OH (45841)

8:36 AM EDT on March 28, 2015 (GMT -0400)
KOHARLIN2 | | Change Station
CLOSE
Current Station
Personal Weather Station
Location: ARLINGTON, OH
Elevation: 850 ft
Nearby Weather Stations

Elev 850 ft 40.87 °N, 83.66 °W | Updated 6 seconds ago

Partly Cloudy
Partly Cloudy
17.2 °F
Feels Like 11 °F
N
4.0
Wind Variable Wind from NW
Gusts 12.0 mph

Today
High -- | Low -- °F
--% Chance of Precip.
Yesterday
High -- | Low -- °F
Precip. -- in
7:25 AM 7:55 PM
First Quarter, 62% visible
Pressure 30.25 in
Visibility 10.0 miles
Clouds Mostly Cloudy 4000 ft
Windchill 11 °F
Dew Point 10 °F
Humidity 72%
Rainfall 0.00 in
Snow Depth Not available.
UV 0 out of 12
Pollen 1.80 out of 12
Air Quality Not available.
Flu Activity Not available.
METAR KFDY 281153Z AUTO 33005KT 10SM BKN040 M09/M13 A3022 RMK AO2 SLP243 T10891133 11061 21089 53024

More Conditions Fewer Conditions

Pressure 30.25 in
Visibility 10.0 miles
Clouds Mostly Cloudy 4000 ft
Windchill 11 °F
Dew Point 10 °F
Humidity 72%
Rainfall 0.00 in
Snow Depth Not available.
UV 0 out of 12
Pollen 1.80 out of 12
Air Quality Not available.
Flu Activity Not available.
METAR KFDY 281153Z AUTO 33005KT 10SM BKN040 M09/M13 A3022 RMK AO2 SLP243 T10891133 11061 21089 53024

More Conditions Fewer Conditions

10-Day Weather Forecast

Almanac

Astronomy

Mar. 28, 2015 Rise Set
Actual Time
Civil Twilight
Nautical Twilight
Astronomical Twilight
Moon
Length of Visible Light
Length of Day
Tomorrow will be .
, % of the Moon is Illuminated

Today's Extremes

State Highs State Lows

Community

WunderPhotos

Upload Photos

1,808,966 photos uploaded!

WunderBlogs® & News

Nearby

Air Quality

  Air Quality AQ Index Pollutant
Not available.

Snow Depth

Station Depth Elevation

Earthquake Activity

City Distance Mag. Time & Date
Minimum magnitude displayed is 2.5.

Coastal Water Temperatures

Place Temperature

Stations

Nearby Weather Stations

Station Location Temp. Windchill Dew Point Humidity Wind Precip. Elev Updated Type